sensor_id;sensor_type;location;lat;lon;timestamp;pressure;altitude;pressure_sealevel;temperature;humidity
67931;BME280;63902;52.000;5.954;2022-10-22T00:00:56;100562.97;;;9.56;100.00
67931;BME280;63902;52.000;5.954;2022-10-22T00:01:56;100567.31;;;9.57;100.00
67931;BME280;63902;52.000;5.954;2022-10-22T00:02:57;100566.53;;;9.55;100.00
67931;BME280;63902;52.000;5.954;2022-10-22T00:03:57;100563.13;;;9.52;100.00
67931;BME280;63902;52.000;5.954;2022-10-22T00:04:58;100568.50;;;9.50;100.00
67931;BME280;63902;52.000;5.954;2022-10-22T00:05:58;100571.06;;;9.52;100.00
67931;BME280;63902;52.000;5.954;2022-10-22T00:06:59;100572.00;;;9.51;100.00
67931;BME280;63902;52.000;5.954;2022-10-22T00:07:59;100569.50;;;9.48;100.00
67931;BME280;63902;52.000;5.954;2022-10-22T00:09:00;100575.66;;;9.48;100.00
67931;BME280;63902;52.000;5.954;2022-10-22T00:10:00;100573.97;;;9.46;100.00
67931;BME280;63902;52.000;5.954;2022-10-22T00:11:08;100568.75;;;9.44;100.00
67931;BME280;63902;52.000;5.954;2022-10-22T00:12:09;100572.31;;;9.43;100.00
67931;BME280;63902;52.000;5.954;2022-10-22T00:13:09;100573.13;;;9.45;100.00
67931;BME280;63902;52.000;5.954;2022-10-22T00:14:10;100576.72;;;9.44;100.00
67931;BME280;63902;52.000;5.954;2022-10-22T00:15:11;100568.88;;;9.41;100.00
67931;BME280;63902;52.000;5.954;2022-10-22T00:16:13;100571.53;;;9.41;100.00
67931;BME280;63902;52.000;5.954;2022-10-22T00:17:13;100572.44;;;9.40;100.00
67931;BME280;63902;52.000;5.954;2022-10-22T00:18:14;100568.09;;;9.39;100.00
67931;BME280;63902;52.000;5.954;2022-10-22T00:19:15;100574.22;;;9.39;100.00
67931;BME280;63902;52.000;5.954;2022-10-22T00:20:15;100569.78;;;9.40;100.00
67931;BME280;63902;52.000;5.954;2022-10-22T00:21:16;100565.44;;;9.39;100.00
67931;BME280;63902;52.000;5.954;2022-10-22T00:22:16;100573.38;;;9.39;100.00
67931;BME280;63902;52.000;5.954;2022-10-22T00:23:17;100561.94;;;9.38;100.00
67931;BME280;63902;52.000;5.954;2022-10-22T00:24:17;100570.59;;;9.42;100.00
67931;BME280;63902;52.000;5.954;2022-10-22T00:25:17;100575.03;;;9.41;100.00
67931;BME280;63902;52.000;5.954;2022-10-22T00:26:18;100572.31;;;9.43;100.00
67931;BME280;63902;52.000;5.954;2022-10-22T00:27:18;100573.25;;;9.42;100.00
67931;BME280;63902;52.000;5.954;2022-10-22T00:28:19;100575.94;;;9.40;100.00
67931;BME280;63902;52.000;5.954;2022-10-22T00:29:20;100580.38;;;9.40;100.00
67931;BME280;63902;52.000;5.954;2022-10-22T00:30:20;100587.41;;;9.41;100.00
67931;BME280;63902;52.000;5.954;2022-10-22T00:31:24;100589.19;;;9.40;100.00
67931;BME280;63902;52.000;5.954;2022-10-22T00:32:24;100590.13;;;9.39;100.00
67931;BME280;63902;52.000;5.954;2022-10-22T00:33:25;100585.69;;;9.40;100.00
67931;BME280;63902;52.000;5.954;2022-10-22T00:34:27;100588.28;;;9.41;100.00
67931;BME280;63902;52.000;5.954;2022-10-22T00:35:27;100597.94;;;9.43;100.00
67931;BME280;63902;52.000;5.954;2022-10-22T00:36:28;100585.69;;;9.40;100.00
67931;BME280;63902;52.000;5.954;2022-10-22T00:37:29;100589.25;;;9.39;100.00
67931;BME280;63902;52.000;5.954;2022-10-22T00:38:29;100596.38;;;9.37;100.00
67931;BME280;63902;52.000;5.954;2022-10-22T00:39:30;100592.88;;;9.36;100.00
67931;BME280;63902;52.000;5.954;2022-10-22T00:40:30;100588.44;;;9.37;100.00
67931;BME280;63902;52.000;5.954;2022-10-22T00:41:31;100585.81;;;9.37;100.00
67931;BME280;63902;52.000;5.954;2022-10-22T00:42:31;100588.19;;;9.43;100.00
67931;BME280;63902;52.000;5.954;2022-10-22T00:43:31;100584.56;;;9.46;100.00
67931;BME280;63902;52.000;5.954;2022-10-22T00:44:59;100594.19;;;9.48;100.00
67931;BME280;63902;52.000;5.954;2022-10-22T00:46:00;100585.25;;;9.51;100.00
67931;BME280;63902;52.000;5.954;2022-10-22T00:47:02;100582.47;;;9.54;100.00
67931;BME280;63902;52.000;5.954;2022-10-22T00:48:04;100585.97;;;9.54;100.00
67931;BME280;63902;52.000;5.954;2022-10-22T00:49:07;100590.28;;;9.57;100.00
67931;BME280;63902;52.000;5.954;2022-10-22T00:50:10;100579.66;;;9.58;100.00
67931;BME280;63902;52.000;5.954;2022-10-22T00:51:12;100589.25;;;9.61;100.00
67931;BME280;63902;52.000;5.954;2022-10-22T00:52:13;100586.66;;;9.59;100.00
67931;BME280;63902;52.000;5.954;2022-10-22T00:53:16;100589.38;;;9.58;100.00
67931;BME280;63902;52.000;5.954;2022-10-22T00:54:18;100580.69;;;9.54;100.00
67931;BME280;63902;52.000;5.954;2022-10-22T00:55:19;100583.34;;;9.54;100.00
67931;BME280;63902;52.000;5.954;2022-10-22T00:56:20;100586.91;;;9.53;100.00
67931;BME280;63902;52.000;5.954;2022-10-22T00:57:21;100585.19;;;9.52;100.00
67931;BME280;63902;52.000;5.954;2022-10-22T00:58:25;100579.91;;;9.52;100.00
67931;BME280;63902;52.000;5.954;2022-10-22T00:59:27;100580.00;;;9.49;100.00
67931;BME280;63902;52.000;5.954;2022-10-22T01:00:27;100584.41;;;9.50;100.00
67931;BME280;63902;52.000;5.954;2022-10-22T01:01:29;100582.66;;;9.49;100.00
67931;BME280;63902;52.000;5.954;2022-10-22T01:02:31;100587.03;;;9.50;100.00
67931;BME280;63902;52.000;5.954;2022-10-22T01:03:32;100588.88;;;9.48;100.00
67931;BME280;63902;52.000;5.954;2022-10-22T01:04:33;100586.22;;;9.48;100.00
67931;BME280;63902;52.000;5.954;2022-10-22T01:05:39;100582.72;;;9.48;100.00
67931;BME280;63902;52.000;5.954;2022-10-22T01:06:41;100587.28;;;9.44;100.00
67931;BME280;63902;52.000;5.954;2022-10-22T01:07:43;100589.88;;;9.46;100.00
67931;BME280;63902;52.000;5.954;2022-10-22T01:08:50;100587.28;;;9.44;100.00
67931;BME280;63902;52.000;5.954;2022-10-22T01:10:00;100589.94;;;9.44;100.00
67931;BME280;63902;52.000;5.954;2022-10-22T01:11:08;100587.47;;;9.39;100.00
67931;BME280;63902;52.000;5.954;2022-10-22T01:12:17;100588.41;;;9.38;100.00
67931;BME280;63902;52.000;5.954;2022-10-22T01:13:30;100593.75;;;9.37;100.00
67931;BME280;63902;52.000;5.954;2022-10-22T01:14:35;100593.81;;;9.35;100.00
67931;BME280;63902;52.000;5.954;2022-10-22T01:15:44;100589.44;;;9.34;100.00
67931;BME280;63902;52.000;5.954;2022-10-22T01:16:52;100593.88;;;9.34;100.00
67931;BME280;63902;52.000;5.954;2022-10-22T01:17:58;100583.53;;;9.28;100.00
67931;BME280;63902;52.000;5.954;2022-10-22T01:19:11;100587.75;;;9.32;100.00
67931;BME280;63902;52.000;5.954;2022-10-22T01:20:22;100594.03;;;9.29;100.00
67931;BME280;63902;52.000;5.954;2022-10-22T01:21:33;100585.25;;;9.29;100.00
67931;BME280;63902;52.000;5.954;2022-10-22T01:22:39;100589.59;;;9.30;100.00
67931;BME280;63902;52.000;5.954;2022-10-22T01:24:05;100588.75;;;9.29;100.00
67931;BME280;63902;52.000;5.954;2022-10-22T01:25:16;100595.78;;;9.30;100.00
67931;BME280;63902;52.000;5.954;2022-10-22T01:26:24;100586.06;;;9.31;100.00
67931;BME280;63902;52.000;5.954;2022-10-22T01:27:33;100583.41;;;9.31;100.00
67931;BME280;63902;52.000;5.954;2022-10-22T01:28:51;100585.94;;;9.34;100.00
67931;BME280;63902;52.000;5.954;2022-10-22T01:29:57;100588.69;;;9.31;100.00
67931;BME280;63902;52.000;5.954;2022-10-22T01:31:00;100583.41;;;9.31;100.00
67931;BME280;63902;52.000;5.954;2022-10-22T01:32:06;100585.25;;;9.29;100.00
67931;BME280;63902;52.000;5.954;2022-10-22T01:33:09;100587.75;;;9.32;100.00
67931;BME280;63902;52.000;5.954;2022-10-22T01:34:15;100582.47;;;9.32;100.00
67931;BME280;63902;52.000;5.954;2022-10-22T01:35:21;100577.25;;;9.30;100.00
67931;BME280;63902;52.000;5.954;2022-10-22T01:36:24;100578.09;;;9.31;100.00
67931;BME280;63902;52.000;5.954;2022-10-22T01:37:29;100580.81;;;9.29;100.00
67931;BME280;63902;52.000;5.954;2022-10-22T01:38:31;100582.69;;;9.27;100.00
67931;BME280;63902;52.000;5.954;2022-10-22T01:39:33;100583.56;;;9.26;100.00
67931;BME280;63902;52.000;5.954;2022-10-22T01:40:34;100586.19;;;9.28;100.00
67931;BME280;63902;52.000;5.954;2022-10-22T01:41:38;100581.75;;;9.28;100.00
67931;BME280;63902;52.000;5.954;2022-10-22T01:42:38;100578.22;;;9.28;100.00
67931;BME280;63902;52.000;5.954;2022-10-22T01:43:39;100579.13;;;9.27;100.00
67931;BME280;63902;52.000;5.954;2022-10-22T01:44:41;100574.72;;;9.27;100.00
67931;BME280;63902;52.000;5.954;2022-10-22T01:45:43;100572.94;;;9.28;100.00
67931;BME280;63902;52.000;5.954;2022-10-22T01:46:47;100565.25;;;9.22;100.00
67931;BME280;63902;52.000;5.954;2022-10-22T01:47:56;100564.25;;;9.24;100.00
67931;BME280;63902;52.000;5.954;2022-10-22T01:49:13;100568.75;;;9.22;100.00
67931;BME280;63902;52.000;5.954;2022-10-22T01:50:26;100579.38;;;9.21;100.00
67931;BME280;63902;52.000;5.954;2022-10-22T01:51:48;100577.78;;;9.16;100.00
67931;BME280;63902;52.000;5.954;2022-10-22T01:53:11;100573.53;;;9.12;100.00
67931;BME280;63902;52.000;5.954;2022-10-22T01:54:24;100581.47;;;9.12;100.00
67931;BME280;63902;52.000;5.954;2022-10-22T01:55:30;100583.38;;;9.09;100.00
67931;BME280;63902;52.000;5.954;2022-10-22T01:56:46;100587.00;;;9.06;100.00
67931;BME280;63902;52.000;5.954;2022-10-22T01:58:00;100583.53;;;9.04;100.00
67931;BME280;63902;52.000;5.954;2022-10-22T01:59:07;100590.47;;;9.08;100.00
67931;BME280;63902;52.000;5.954;2022-10-22T02:00:12;100582.41;;;9.11;100.00
67931;BME280;63902;52.000;5.954;2022-10-22T02:01:18;100586.84;;;9.11;100.00
67931;BME280;63902;52.000;5.954;2022-10-22T02:02:28;100579.69;;;9.13;100.00
67931;BME280;63902;52.000;5.954;2022-10-22T02:03:38;100590.38;;;9.10;100.00
67931;BME280;63902;52.000;5.954;2022-10-22T02:04:44;100590.38;;;9.10;100.00
67931;BME280;63902;52.000;5.954;2022-10-22T02:05:49;100588.63;;;9.10;100.00
67931;BME280;63902;52.000;5.954;2022-10-22T02:06:54;100593.91;;;9.10;100.00
67931;BME280;63902;52.000;5.954;2022-10-22T02:08:00;100591.16;;;9.13;100.00
67931;BME280;63902;52.000;5.954;2022-10-22T02:09:02;100587.56;;;9.14;100.00
67931;BME280;63902;52.000;5.954;2022-10-22T02:10:04;100586.63;;;9.15;100.00
67931;BME280;63902;52.000;5.954;2022-10-22T02:11:05;100588.38;;;9.16;100.00
67931;BME280;63902;52.000;5.954;2022-10-22T02:12:07;100585.72;;;9.16;100.00
67931;BME280;63902;52.000;5.954;2022-10-22T02:13:11;100575.28;;;9.13;100.00
67931;BME280;63902;52.000;5.954;2022-10-22T02:14:14;100583.00;;;9.18;100.00
67931;BME280;63902;52.000;5.954;2022-10-22T02:15:19;100575.94;;;9.18;100.00
67931;BME280;63902;52.000;5.954;2022-10-22T02:16:24;100579.47;;;9.19;100.00
67931;BME280;63902;52.000;5.954;2022-10-22T02:17:30;100579.38;;;9.21;100.00
67931;BME280;63902;52.000;5.954;2022-10-22T02:18:35;100584.81;;;9.17;100.00
67931;BME280;63902;52.000;5.954;2022-10-22T02:19:41;100576.06;;;9.15;100.00
67931;BME280;63902;52.000;5.954;2022-10-22T02:20:43;100577.91;;;9.13;100.00
67931;BME280;63902;52.000;5.954;2022-10-22T02:21:44;100574.22;;;9.17;100.00
67931;BME280;63902;52.000;5.954;2022-10-22T02:22:45;100572.19;;;9.24;100.00
67931;BME280;63902;52.000;5.954;2022-10-22T02:23:46;100579.22;;;9.25;100.00
67931;BME280;63902;52.000;5.954;2022-10-22T02:24:48;100580.13;;;9.24;100.00
67931;BME280;63902;52.000;5.954;2022-10-22T02:25:54;100575.88;;;9.20;100.00
67931;BME280;63902;52.000;5.954;2022-10-22T02:27:03;100571.66;;;9.16;100.00
67931;BME280;63902;52.000;5.954;2022-10-22T02:28:12;100584.13;;;9.12;100.00
67931;BME280;63902;52.000;5.954;2022-10-22T02:29:20;100578.81;;;9.12;100.00
67931;BME280;63902;52.000;5.954;2022-10-22T02:30:25;100584.06;;;9.14;100.00
67931;BME280;63902;52.000;5.954;2022-10-22T02:31:28;100576.06;;;9.15;100.00
67931;BME280;63902;52.000;5.954;2022-10-22T02:32:33;100575.28;;;9.13;100.00
67931;BME280;63902;52.000;5.954;2022-10-22T02:33:38;100577.97;;;9.12;100.00
67931;BME280;63902;52.000;5.954;2022-10-22T02:34:45;100582.41;;;9.11;100.00
67931;BME280;63902;52.000;5.954;2022-10-22T02:35:47;100578.81;;;9.12;100.00
67931;BME280;63902;52.000;5.954;2022-10-22T02:36:48;100565.84;;;9.06;100.00
67931;BME280;63902;52.000;5.954;2022-10-22T02:37:51;100576.28;;;9.09;100.00
67931;BME280;63902;52.000;5.954;2022-10-22T02:38:53;100577.22;;;9.08;100.00
67931;BME280;63902;52.000;5.954;2022-10-22T02:39:56;100571.97;;;9.07;100.00
67931;BME280;63902;52.000;5.954;2022-10-22T02:40:56;100569.41;;;9.05;100.00
67931;BME280;63902;52.000;5.954;2022-10-22T02:41:57;100576.53;;;9.03;100.00
67931;BME280;63902;52.000;5.954;2022-10-22T02:42:57;100573.94;;;9.02;100.00
67931;BME280;63902;52.000;5.954;2022-10-22T02:43:58;100578.38;;;9.01;100.00
67931;BME280;63902;52.000;5.954;2022-10-22T02:44:59;100580.16;;;9.01;100.00
67931;BME280;63902;52.000;5.954;2022-10-22T02:46:00;100585.53;;;8.99;100.00
67931;BME280;63902;52.000;5.954;2022-10-22T02:47:01;100574.13;;;8.97;100.00
67931;BME280;63902;52.000;5.954;2022-10-22T02:48:02;100578.50;;;8.98;100.00
67931;BME280;63902;52.000;5.954;2022-10-22T02:49:03;100576.59;;;9.02;100.00
67931;BME280;63902;52.000;5.954;2022-10-22T02:50:04;100573.91;;;9.03;100.00
67931;BME280;63902;52.000;5.954;2022-10-22T02:51:05;100576.53;;;9.03;100.00
67931;BME280;63902;52.000;5.954;2022-10-22T02:52:06;100572.97;;;9.04;100.00
67931;BME280;63902;52.000;5.954;2022-10-22T02:53:06;100584.47;;;9.03;100.00
67931;BME280;63902;52.000;5.954;2022-10-22T02:54:07;100571.50;;;8.97;100.00
67931;BME280;63902;52.000;5.954;2022-10-22T02:55:07;100574.81;;;9.02;100.00
67931;BME280;63902;52.000;5.954;2022-10-22T02:56:08;100577.41;;;9.04;100.00
67931;BME280;63902;52.000;5.954;2022-10-22T02:57:09;100578.25;;;9.04;100.00
67931;BME280;63902;52.000;5.954;2022-10-22T02:58:09;100571.13;;;9.06;100.00
67931;BME280;63902;52.000;5.954;2022-10-22T02:59:10;100576.28;;;9.09;100.00
67931;BME280;63902;52.000;5.954;2022-10-22T03:00:11;100583.25;;;9.12;100.00
67931;BME280;63902;52.000;5.954;2022-10-22T03:01:13;100574.38;;;9.13;100.00
67931;BME280;63902;52.000;5.954;2022-10-22T03:02:14;100576.19;;;9.12;100.00
67931;BME280;63902;52.000;5.954;2022-10-22T03:03:14;100574.63;;;9.07;100.00
67931;BME280;63902;52.000;5.954;2022-10-22T03:04:15;100579.03;;;9.08;100.00
67931;BME280;63902;52.000;5.954;2022-10-22T03:05:15;100574.63;;;9.07;100.00
67931;BME280;63902;52.000;5.954;2022-10-22T03:06:16;100576.41;;;9.06;100.00
67931;BME280;63902;52.000;5.954;2022-10-22T03:07:16;100577.28;;;9.07;100.00
67931;BME280;63902;52.000;5.954;2022-10-22T03:08:17;100568.56;;;9.05;100.00
67931;BME280;63902;52.000;5.954;2022-10-22T03:09:17;100575.47;;;9.07;100.00
67931;BME280;63902;52.000;5.954;2022-10-22T03:10:18;100566.00;;;9.02;100.00
67931;BME280;63902;52.000;5.954;2022-10-22T03:11:18;100580.78;;;9.07;100.00
67931;BME280;63902;52.000;5.954;2022-10-22T03:12:19;100586.16;;;9.06;100.00
67931;BME280;63902;52.000;5.954;2022-10-22T03:13:19;100573.84;;;9.05;100.00
67931;BME280;63902;52.000;5.954;2022-10-22T03:14:20;100573.72;;;9.08;100.00
67931;BME280;63902;52.000;5.954;2022-10-22T03:15:20;100572.84;;;9.07;100.00
67931;BME280;63902;52.000;5.954;2022-10-22T03:16:22;100573.84;;;9.05;100.00
67931;BME280;63902;52.000;5.954;2022-10-22T03:17:23;100565.09;;;9.03;100.00
67931;BME280;63902;52.000;5.954;2022-10-22T03:18:23;100572.97;;;9.04;100.00
67931;BME280;63902;52.000;5.954;2022-10-22T03:19:24;100572.09;;;9.04;100.00
67931;BME280;63902;52.000;5.954;2022-10-22T03:20:24;100575.69;;;9.03;100.00
67931;BME280;63902;52.000;5.954;2022-10-22T03:21:28;100571.25;;;9.03;100.00
67931;BME280;63902;52.000;5.954;2022-10-22T03:22:32;100569.53;;;9.02;100.00
67931;BME280;63902;52.000;5.954;2022-10-22T03:23:34;100576.50;;;9.05;100.00
67931;BME280;63902;52.000;5.954;2022-10-22T03:24:36;100574.81;;;9.02;100.00
67931;BME280;63902;52.000;5.954;2022-10-22T03:25:38;100575.59;;;9.04;100.00
67931;BME280;63902;52.000;5.954;2022-10-22T03:26:41;100577.41;;;9.04;100.00
67931;BME280;63902;52.000;5.954;2022-10-22T03:27:42;100566.94;;;9.01;100.00
67931;BME280;63902;52.000;5.954;2022-10-22T03:28:43;100577.41;;;9.04;100.00
67931;BME280;63902;52.000;5.954;2022-10-22T03:29:44;100578.25;;;9.04;100.00
67931;BME280;63902;52.000;5.954;2022-10-22T03:30:45;100580.84;;;9.06;100.00
67931;BME280;63902;52.000;5.954;2022-10-22T03:31:47;100576.41;;;9.06;100.00
67931;BME280;63902;52.000;5.954;2022-10-22T03:32:47;100581.59;;;9.09;100.00
67931;BME280;63902;52.000;5.954;2022-10-22T03:33:48;100587.81;;;9.08;100.00
67931;BME280;63902;52.000;5.954;2022-10-22T03:34:48;100585.03;;;9.11;100.00
67931;BME280;63902;52.000;5.954;2022-10-22T03:35:49;100583.88;;;9.18;100.00
67931;BME280;63902;52.000;5.954;2022-10-22T03:36:50;100583.94;;;9.17;100.00
67931;BME280;63902;52.000;5.954;2022-10-22T03:37:51;100580.50;;;9.15;100.00
67931;BME280;63902;52.000;5.954;2022-10-22T03:38:51;100588.53;;;9.12;100.00
67931;BME280;63902;52.000;5.954;2022-10-22T03:39:52;100583.34;;;9.10;100.00
67931;BME280;63902;52.000;5.954;2022-10-22T03:40:53;100587.81;;;9.08;100.00
67931;BME280;63902;52.000;5.954;2022-10-22T03:41:54;100583.22;;;9.13;100.00
67931;BME280;63902;52.000;5.954;2022-10-22T03:42:55;100589.72;;;9.27;100.00
67931;BME280;63902;52.000;5.954;2022-10-22T03:43:56;100590.53;;;9.29;100.00
67931;BME280;63902;52.000;5.954;2022-10-22T03:44:57;100590.72;;;9.24;100.00
67931;BME280;63902;52.000;5.954;2022-10-22T03:45:57;100591.72;;;9.22;100.00
67931;BME280;63902;52.000;5.954;2022-10-22T03:46:59;100600.56;;;9.21;100.00
67931;BME280;63902;52.000;5.954;2022-10-22T03:47:59;100599.66;;;9.22;100.00
67931;BME280;63902;52.000;5.954;2022-10-22T03:49:00;100597.88;;;9.22;100.00
67931;BME280;63902;52.000;5.954;2022-10-22T03:50:00;100597.00;;;9.22;100.00
67931;BME280;63902;52.000;5.954;2022-10-22T03:51:00;100601.50;;;9.19;100.00
67931;BME280;63902;52.000;5.954;2022-10-22T03:52:04;100601.53;;;9.18;100.00
67931;BME280;63902;52.000;5.954;2022-10-22T03:53:05;100600.75;;;9.16;100.00
67931;BME280;63902;52.000;5.954;2022-10-22T03:54:05;100596.44;;;9.13;100.00
67931;BME280;63902;52.000;5.954;2022-10-22T03:55:07;100599.88;;;9.15;100.00
67931;BME280;63902;52.000;5.954;2022-10-22T03:56:08;100598.16;;;9.14;100.00
67931;BME280;63902;52.000;5.954;2022-10-22T03:57:09;100604.38;;;9.13;100.00
67931;BME280;63902;52.000;5.954;2022-10-22T03:58:09;100604.31;;;9.15;100.00
67931;BME280;63902;52.000;5.954;2022-10-22T03:59:10;100602.63;;;9.12;100.00
67931;BME280;63902;52.000;5.954;2022-10-22T04:00:11;100604.50;;;9.10;100.00
67931;BME280;63902;52.000;5.954;2022-10-22T04:01:12;100594.91;;;9.08;100.00
67931;BME280;63902;52.000;5.954;2022-10-22T04:02:15;100595.00;;;9.05;100.00
67931;BME280;63902;52.000;5.954;2022-10-22T04:03:15;100597.59;;;9.06;100.00
67931;BME280;63902;52.000;5.954;2022-10-22T04:04:16;100601.03;;;9.08;100.00
67931;BME280;63902;52.000;5.954;2022-10-22T04:05:16;100606.38;;;9.07;100.00
67931;BME280;63902;52.000;5.954;2022-10-22T04:06:17;100606.47;;;9.05;100.00
67931;BME280;63902;52.000;5.954;2022-10-22T04:07:17;100603.03;;;9.02;100.00
67931;BME280;63902;52.000;5.954;2022-10-22T04:08:18;100610.94;;;9.03;100.00
67931;BME280;63902;52.000;5.954;2022-10-22T04:09:18;100612.84;;;9.00;100.00
67931;BME280;63902;52.000;5.954;2022-10-22T04:10:18;100614.50;;;9.02;100.00
67931;BME280;63902;52.000;5.954;2022-10-22T04:11:19;100606.50;;;9.04;100.00
67931;BME280;63902;52.000;5.954;2022-10-22T04:12:19;100611.75;;;9.05;100.00
67931;BME280;63902;52.000;5.954;2022-10-22T04:13:20;100615.28;;;9.04;100.00
67931;BME280;63902;52.000;5.954;2022-10-22T04:14:20;100616.19;;;9.05;100.00
67931;BME280;63902;52.000;5.954;2022-10-22T04:15:21;100613.59;;;9.03;100.00
67931;BME280;63902;52.000;5.954;2022-10-22T04:16:22;100618.88;;;9.03;100.00
67931;BME280;63902;52.000;5.954;2022-10-22T04:17:24;100615.28;;;9.04;100.00
67931;BME280;63902;52.000;5.954;2022-10-22T04:18:24;100613.59;;;9.03;100.00
67931;BME280;63902;52.000;5.954;2022-10-22T04:19:24;100611.97;;;8.99;100.00
67931;BME280;63902;52.000;5.954;2022-10-22T04:20:25;100617.28;;;8.99;100.00
67931;BME280;63902;52.000;5.954;2022-10-22T04:21:25;100620.00;;;8.96;100.00
67931;BME280;63902;52.000;5.954;2022-10-22T04:22:26;100616.56;;;8.94;100.00
67931;BME280;63902;52.000;5.954;2022-10-22T04:23:26;100618.19;;;8.98;100.00
67931;BME280;63902;52.000;5.954;2022-10-22T04:24:28;100601.72;;;8.90;100.00
67931;BME280;63902;52.000;5.954;2022-10-22T04:25:29;100615.72;;;8.93;100.00
67931;BME280;63902;52.000;5.954;2022-10-22T04:26:29;100606.13;;;8.91;100.00
67931;BME280;63902;52.000;5.954;2022-10-22T04:27:30;100612.31;;;8.90;100.00
67931;BME280;63902;52.000;5.954;2022-10-22T04:28:31;100619.28;;;8.92;100.00
67931;BME280;63902;52.000;5.954;2022-10-22T04:29:31;100611.34;;;8.92;100.00
67931;BME280;63902;52.000;5.954;2022-10-22T04:30:32;100612.97;;;8.96;100.00
67931;BME280;63902;52.000;5.954;2022-10-22T04:31:32;100619.09;;;8.97;100.00
67931;BME280;63902;52.000;5.954;2022-10-22T04:32:34;100621.88;;;8.94;100.00
67931;BME280;63902;52.000;5.954;2022-10-22T04:33:35;100609.66;;;8.90;100.00
67931;BME280;63902;52.000;5.954;2022-10-22T04:34:35;100616.75;;;8.89;100.00
67931;BME280;63902;52.000;5.954;2022-10-22T04:35:37;100617.47;;;8.93;100.00
67931;BME280;63902;52.000;5.954;2022-10-22T04:36:38;100618.38;;;8.93;100.00
67931;BME280;63902;52.000;5.954;2022-10-22T04:37:38;100614.06;;;8.91;100.00
67931;BME280;63902;52.000;5.954;2022-10-22T04:38:39;100620.13;;;8.93;100.00
67931;BME280;63902;52.000;5.954;2022-10-22T04:39:40;100620.25;;;8.90;100.00
67931;BME280;63902;52.000;5.954;2022-10-22T04:40:41;100623.75;;;8.90;100.00
67931;BME280;63902;52.000;5.954;2022-10-22T04:41:41;100617.66;;;8.88;100.00
67931;BME280;63902;52.000;5.954;2022-10-22T04:42:42;100626.38;;;8.90;100.00
67931;BME280;63902;52.000;5.954;2022-10-22T04:43:43;100615.88;;;8.89;100.00
67931;BME280;63902;52.000;5.954;2022-10-22T04:44:43;100615.06;;;8.87;100.00
67931;BME280;63902;52.000;5.954;2022-10-22T04:45:44;100613.41;;;8.84;100.00
67931;BME280;63902;52.000;5.954;2022-10-22T04:46:44;100619.50;;;8.86;100.00
67931;BME280;63902;52.000;5.954;2022-10-22T04:47:46;100615.25;;;8.82;100.00
67931;BME280;63902;52.000;5.954;2022-10-22T04:48:47;100614.34;;;8.83;100.00
67931;BME280;63902;52.000;5.954;2022-10-22T04:49:47;100609.09;;;8.82;100.00
67931;BME280;63902;52.000;5.954;2022-10-22T04:50:47;100617.09;;;8.80;100.00
67931;BME280;63902;52.000;5.954;2022-10-22T04:51:48;100611.84;;;8.79;100.00
67931;BME280;63902;52.000;5.954;2022-10-22T04:52:48;100618.09;;;8.76;100.00
67931;BME280;63902;52.000;5.954;2022-10-22T04:53:49;100619.03;;;8.75;100.00
67931;BME280;63902;52.000;5.954;2022-10-22T04:54:50;100616.56;;;8.70;100.00
67931;BME280;63902;52.000;5.954;2022-10-22T04:55:50;100614.75;;;8.71;100.00
67931;BME280;63902;52.000;5.954;2022-10-22T04:56:50;100611.25;;;8.70;100.00
67931;BME280;63902;52.000;5.954;2022-10-22T04:57:51;100611.25;;;8.70;100.00
67931;BME280;63902;52.000;5.954;2022-10-22T04:58:53;100616.56;;;8.70;100.00
67931;BME280;63902;52.000;5.954;2022-10-22T04:59:53;100614.84;;;8.69;100.00
67931;BME280;63902;52.000;5.954;2022-10-22T05:00:54;100618.34;;;8.70;100.00
67931;BME280;63902;52.000;5.954;2022-10-22T05:01:54;100620.94;;;8.71;100.00
67931;BME280;63902;52.000;5.954;2022-10-22T05:02:56;100628.88;;;8.71;100.00
67931;BME280;63902;52.000;5.954;2022-10-22T05:03:58;100619.19;;;8.70;100.00
67931;BME280;63902;52.000;5.954;2022-10-22T05:04:59;100621.84;;;8.70;100.00
67931;BME280;63902;52.000;5.954;2022-10-22T05:05:59;100628.09;;;8.68;100.00
67931;BME280;63902;52.000;5.954;2022-10-22T05:07:00;100634.34;;;8.65;100.00
67931;BME280;63902;52.000;5.954;2022-10-22T05:08:00;100625.66;;;8.63;100.00
67931;BME280;63902;52.000;5.954;2022-10-22T05:09:04;100629.19;;;8.62;100.00
67931;BME280;63902;52.000;5.954;2022-10-22T05:10:06;100630.94;;;8.63;100.00
67931;BME280;63902;52.000;5.954;2022-10-22T05:11:10;100626.63;;;8.61;100.00
67931;BME280;63902;52.000;5.954;2022-10-22T05:12:11;100627.47;;;8.61;100.00
67931;BME280;63902;52.000;5.954;2022-10-22T05:13:11;100626.63;;;8.61;100.00
67931;BME280;63902;52.000;5.954;2022-10-22T05:14:12;100635.50;;;8.58;100.00
67931;BME280;63902;52.000;5.954;2022-10-22T05:15:14;100626.75;;;8.56;100.00
67931;BME280;63902;52.000;5.954;2022-10-22T05:16:15;100628.56;;;8.56;100.00
67931;BME280;63902;52.000;5.954;2022-10-22T05:17:15;100625.06;;;8.55;100.00
67931;BME280;63902;52.000;5.954;2022-10-22T05:18:17;100627.69;;;8.55;100.00
67931;BME280;63902;52.000;5.954;2022-10-22T05:19:19;100633.94;;;8.52;100.00
67931;BME280;63902;52.000;5.954;2022-10-22T05:20:20;100629.63;;;8.50;100.00
67931;BME280;63902;52.000;5.954;2022-10-22T05:21:20;100637.56;;;8.50;100.00
67931;BME280;63902;52.000;5.954;2022-10-22T05:22:21;100633.09;;;8.52;100.00
67931;BME280;63902;52.000;5.954;2022-10-22T05:23:21;100638.38;;;8.52;100.00
67931;BME280;63902;52.000;5.954;2022-10-22T05:24:22;100636.63;;;8.51;100.00
67931;BME280;63902;52.000;5.954;2022-10-22T05:25:22;100641.91;;;8.51;100.00
67931;BME280;63902;52.000;5.954;2022-10-22T05:26:23;100624.38;;;8.48;100.00
67931;BME280;63902;52.000;5.954;2022-10-22T05:27:23;100638.41;;;8.50;100.00